sensor_id;sensor_type;location;lat;lon;timestamp;P1;durP1;ratioP1;P2;durP2;ratioP2
41446;SDS011;27185;52.040;4.490;2024-01-10T00:00:45;4.18;;;2.22;;
41446;SDS011;27185;52.040;4.490;2024-01-10T00:03:31;6.18;;;2.67;;
41446;SDS011;27185;52.040;4.490;2024-01-10T00:06:16;5.57;;;2.28;;
41446;SDS011;27185;52.040;4.490;2024-01-10T00:09:02;5.50;;;2.53;;
41446;SDS011;27185;52.040;4.490;2024-01-10T00:11:47;5.97;;;2.67;;
41446;SDS011;27185;52.040;4.490;2024-01-10T00:14:33;5.35;;;3.03;;
41446;SDS011;27185;52.040;4.490;2024-01-10T00:17:19;7.60;;;2.80;;
41446;SDS011;27185;52.040;4.490;2024-01-10T00:20:04;5.30;;;2.38;;
41446;SDS011;27185;52.040;4.490;2024-01-10T00:22:51;8.00;;;2.80;;
41446;SDS011;27185;52.040;4.490;2024-01-10T00:25:36;6.55;;;2.47;;
41446;SDS011;27185;52.040;4.490;2024-01-10T00:28:25;5.63;;;2.78;;
41446;SDS011;27185;52.040;4.490;2024-01-10T00:31:11;6.05;;;2.35;;
41446;SDS011;27185;52.040;4.490;2024-01-10T00:33:58;6.68;;;2.67;;
41446;SDS011;27185;52.040;4.490;2024-01-10T00:36:43;6.50;;;3.33;;
41446;SDS011;27185;52.040;4.490;2024-01-10T00:39:29;5.75;;;2.28;;
41446;SDS011;27185;52.040;4.490;2024-01-10T00:42:14;7.28;;;3.20;;
41446;SDS011;27185;52.040;4.490;2024-01-10T00:45:00;6.13;;;2.92;;
41446;SDS011;27185;52.040;4.490;2024-01-10T00:47:48;5.15;;;2.75;;
41446;SDS011;27185;52.040;4.490;2024-01-10T00:53:19;6.03;;;2.85;;
41446;SDS011;27185;52.040;4.490;2024-01-10T00:56:05;6.47;;;2.40;;
41446;SDS011;27185;52.040;4.490;2024-01-10T00:58:51;11.18;;;3.47;;
41446;SDS011;27185;52.040;4.490;2024-01-10T01:01:42;4.80;;;2.13;;
41446;SDS011;27185;52.040;4.490;2024-01-10T01:04:28;6.25;;;2.95;;
41446;SDS011;27185;52.040;4.490;2024-01-10T01:10:02;8.50;;;2.85;;
41446;SDS011;27185;52.040;4.490;2024-01-10T01:12:48;5.85;;;2.90;;
41446;SDS011;27185;52.040;4.490;2024-01-10T01:15:33;5.47;;;2.42;;
41446;SDS011;27185;52.040;4.490;2024-01-10T01:18:19;10.82;;;3.25;;
41446;SDS011;27185;52.040;4.490;2024-01-10T01:21:05;6.63;;;3.30;;
41446;SDS011;27185;52.040;4.490;2024-01-10T01:23:50;6.63;;;2.90;;
41446;SDS011;27185;52.040;4.490;2024-01-10T01:26:36;6.00;;;2.75;;
41446;SDS011;27185;52.040;4.490;2024-01-10T01:29:21;7.43;;;3.28;;
41446;SDS011;27185;52.040;4.490;2024-01-10T01:32:07;7.57;;;2.90;;
41446;SDS011;27185;52.040;4.490;2024-01-10T01:34:53;4.80;;;2.60;;
41446;SDS011;27185;52.040;4.490;2024-01-10T01:37:38;5.25;;;2.47;;
41446;SDS011;27185;52.040;4.490;2024-01-10T01:40:27;5.28;;;2.47;;
41446;SDS011;27185;52.040;4.490;2024-01-10T01:43:23;5.00;;;2.50;;
41446;SDS011;27185;52.040;4.490;2024-01-10T01:46:09;6.65;;;2.95;;
41446;SDS011;27185;52.040;4.490;2024-01-10T01:48:55;5.95;;;2.80;;
41446;SDS011;27185;52.040;4.490;2024-01-10T01:51:41;6.05;;;2.80;;
41446;SDS011;27185;52.040;4.490;2024-01-10T01:54:27;6.25;;;2.88;;
41446;SDS011;27185;52.040;4.490;2024-01-10T01:57:13;5.63;;;2.92;;
41446;SDS011;27185;52.040;4.490;2024-01-10T01:59:59;4.90;;;2.50;;
41446;SDS011;27185;52.040;4.490;2024-01-10T02:02:44;5.45;;;3.28;;
41446;SDS011;27185;52.040;4.490;2024-01-10T02:05:33;6.00;;;2.85;;
41446;SDS011;27185;52.040;4.490;2024-01-10T02:08:22;5.63;;;2.67;;
41446;SDS011;27185;52.040;4.490;2024-01-10T02:11:07;5.85;;;3.20;;
41446;SDS011;27185;52.040;4.490;2024-01-10T02:13:53;5.75;;;3.08;;
41446;SDS011;27185;52.040;4.490;2024-01-10T02:16:39;7.32;;;3.63;;
41446;SDS011;27185;52.040;4.490;2024-01-10T02:19:25;6.78;;;3.33;;
41446;SDS011;27185;52.040;4.490;2024-01-10T02:22:11;7.68;;;3.08;;
41446;SDS011;27185;52.040;4.490;2024-01-10T02:24:57;7.97;;;3.85;;
41446;SDS011;27185;52.040;4.490;2024-01-10T02:27:43;6.15;;;2.83;;
41446;SDS011;27185;52.040;4.490;2024-01-10T02:30:29;4.97;;;2.88;;
41446;SDS011;27185;52.040;4.490;2024-01-10T02:33:14;8.85;;;3.45;;
41446;SDS011;27185;52.040;4.490;2024-01-10T02:36:00;6.32;;;3.08;;
41446;SDS011;27185;52.040;4.490;2024-01-10T02:38:45;8.20;;;3.72;;
41446;SDS011;27185;52.040;4.490;2024-01-10T02:41:32;7.22;;;3.15;;
41446;SDS011;27185;52.040;4.490;2024-01-10T02:44:18;7.68;;;3.97;;
41446;SDS011;27185;52.040;4.490;2024-01-10T02:47:05;7.40;;;4.03;;
41446;SDS011;27185;52.040;4.490;2024-01-10T02:49:51;6.70;;;3.60;;
41446;SDS011;27185;52.040;4.490;2024-01-10T02:52:37;10.98;;;3.80;;
41446;SDS011;27185;52.040;4.490;2024-01-10T02:55:23;9.93;;;4.00;;
41446;SDS011;27185;52.040;4.490;2024-01-10T02:58:08;7.05;;;3.78;;
41446;SDS011;27185;52.040;4.490;2024-01-10T03:00:54;8.38;;;4.13;;
41446;SDS011;27185;52.040;4.490;2024-01-10T03:03:39;8.80;;;4.60;;
41446;SDS011;27185;52.040;4.490;2024-01-10T03:06:25;8.07;;;4.13;;
41446;SDS011;27185;52.040;4.490;2024-01-10T03:09:10;7.47;;;4.45;;
41446;SDS011;27185;52.040;4.490;2024-01-10T03:11:56;7.30;;;4.07;;
41446;SDS011;27185;52.040;4.490;2024-01-10T03:14:41;10.00;;;4.22;;
41446;SDS011;27185;52.040;4.490;2024-01-10T03:17:27;10.30;;;5.47;;
41446;SDS011;27185;52.040;4.490;2024-01-10T03:20:13;10.63;;;5.53;;
41446;SDS011;27185;52.040;4.490;2024-01-10T03:22:58;10.38;;;5.30;;
41446;SDS011;27185;52.040;4.490;2024-01-10T03:25:44;9.52;;;5.57;;
41446;SDS011;27185;52.040;4.490;2024-01-10T03:28:30;9.95;;;6.03;;
41446;SDS011;27185;52.040;4.490;2024-01-10T03:31:15;11.68;;;5.10;;
41446;SDS011;27185;52.040;4.490;2024-01-10T03:34:03;9.20;;;5.50;;
41446;SDS011;27185;52.040;4.490;2024-01-10T03:36:48;9.00;;;4.70;;
41446;SDS011;27185;52.040;4.490;2024-01-10T03:39:34;10.48;;;6.38;;
41446;SDS011;27185;52.040;4.490;2024-01-10T03:42:20;11.57;;;6.30;;
41446;SDS011;27185;52.040;4.490;2024-01-10T03:45:05;13.27;;;5.90;;
41446;SDS011;27185;52.040;4.490;2024-01-10T03:47:51;10.98;;;6.20;;
41446;SDS011;27185;52.040;4.490;2024-01-10T03:50:37;12.10;;;6.28;;
41446;SDS011;27185;52.040;4.490;2024-01-10T03:53:22;11.45;;;6.20;;
41446;SDS011;27185;52.040;4.490;2024-01-10T03:56:12;11.18;;;6.47;;
41446;SDS011;27185;52.040;4.490;2024-01-10T03:58:57;10.02;;;5.60;;
41446;SDS011;27185;52.040;4.490;2024-01-10T04:01:44;12.07;;;6.22;;
41446;SDS011;27185;52.040;4.490;2024-01-10T04:04:29;10.23;;;5.70;;
41446;SDS011;27185;52.040;4.490;2024-01-10T04:07:15;10.52;;;6.45;;
41446;SDS011;27185;52.040;4.490;2024-01-10T04:10:01;10.63;;;5.95;;
41446;SDS011;27185;52.040;4.490;2024-01-10T04:12:47;12.75;;;6.78;;
41446;SDS011;27185;52.040;4.490;2024-01-10T04:15:33;11.05;;;6.13;;
41446;SDS011;27185;52.040;4.490;2024-01-10T04:18:19;9.48;;;5.72;;
41446;SDS011;27185;52.040;4.490;2024-01-10T04:21:06;10.25;;;5.50;;
41446;SDS011;27185;52.040;4.490;2024-01-10T04:23:52;13.68;;;6.57;;
41446;SDS011;27185;52.040;4.490;2024-01-10T04:26:37;13.55;;;6.70;;
41446;SDS011;27185;52.040;4.490;2024-01-10T04:29:23;13.25;;;5.93;;
41446;SDS011;27185;52.040;4.490;2024-01-10T04:32:08;11.13;;;6.57;;
41446;SDS011;27185;52.040;4.490;2024-01-10T04:34:54;11.52;;;6.30;;
41446;SDS011;27185;52.040;4.490;2024-01-10T04:37:40;10.05;;;6.05;;
41446;SDS011;27185;52.040;4.490;2024-01-10T04:40:25;12.48;;;5.72;;
41446;SDS011;27185;52.040;4.490;2024-01-10T04:43:11;11.52;;;6.30;;
41446;SDS011;27185;52.040;4.490;2024-01-10T04:45:57;10.32;;;5.82;;
41446;SDS011;27185;52.040;4.490;2024-01-10T04:48:42;9.32;;;5.45;;
41446;SDS011;27185;52.040;4.490;2024-01-10T04:51:28;11.27;;;5.85;;
41446;SDS011;27185;52.040;4.490;2024-01-10T04:54:14;9.27;;;5.47;;
41446;SDS011;27185;52.040;4.490;2024-01-10T04:56:59;8.75;;;4.95;;
41446;SDS011;27185;52.040;4.490;2024-01-10T04:59:45;9.70;;;4.68;;
41446;SDS011;27185;52.040;4.490;2024-01-10T05:02:30;11.77;;;6.65;;
41446;SDS011;27185;52.040;4.490;2024-01-10T05:05:16;11.63;;;6.85;;
41446;SDS011;27185;52.040;4.490;2024-01-10T05:08:08;11.25;;;6.13;;
41446;SDS011;27185;52.040;4.490;2024-01-10T05:10:54;10.50;;;5.05;;
41446;SDS011;27185;52.040;4.490;2024-01-10T05:13:39;9.48;;;5.47;;
41446;SDS011;27185;52.040;4.490;2024-01-10T05:16:25;9.43;;;4.75;;
41446;SDS011;27185;52.040;4.490;2024-01-10T05:19:10;8.77;;;4.72;;
41446;SDS011;27185;52.040;4.490;2024-01-10T05:21:56;12.18;;;5.07;;
41446;SDS011;27185;52.040;4.490;2024-01-10T05:24:42;7.93;;;4.43;;
41446;SDS011;27185;52.040;4.490;2024-01-10T05:27:27;9.30;;;5.25;;
41446;SDS011;27185;52.040;4.490;2024-01-10T05:30:13;11.30;;;5.53;;
41446;SDS011;27185;52.040;4.490;2024-01-10T05:32:59;9.40;;;5.15;;
41446;SDS011;27185;52.040;4.490;2024-01-10T05:35:45;9.73;;;5.22;;
41446;SDS011;27185;52.040;4.490;2024-01-10T05:38:31;10.52;;;5.55;;
41446;SDS011;27185;52.040;4.490;2024-01-10T05:41:17;9.07;;;4.93;;
41446;SDS011;27185;52.040;4.490;2024-01-10T05:44:02;8.43;;;4.60;;
41446;SDS011;27185;52.040;4.490;2024-01-10T05:46:49;14.05;;;5.90;;
41446;SDS011;27185;52.040;4.490;2024-01-10T05:49:35;11.70;;;6.63;;
41446;SDS011;27185;52.040;4.490;2024-01-10T05:52:21;10.70;;;6.13;;
41446;SDS011;27185;52.040;4.490;2024-01-10T05:55:07;11.43;;;6.90;;
41446;SDS011;27185;52.040;4.490;2024-01-10T05:57:53;12.82;;;6.40;;
41446;SDS011;27185;52.040;4.490;2024-01-10T06:00:39;13.07;;;6.97;;
41446;SDS011;27185;52.040;4.490;2024-01-10T06:03:25;11.10;;;6.68;;
41446;SDS011;27185;52.040;4.490;2024-01-10T06:06:10;12.10;;;6.25;;
41446;SDS011;27185;52.040;4.490;2024-01-10T06:08:56;14.85;;;7.65;;
41446;SDS011;27185;52.040;4.490;2024-01-10T06:11:41;14.10;;;6.90;;
41446;SDS011;27185;52.040;4.490;2024-01-10T06:14:27;13.98;;;7.57;;
41446;SDS011;27185;52.040;4.490;2024-01-10T06:17:13;12.90;;;6.47;;
41446;SDS011;27185;52.040;4.490;2024-01-10T06:19:59;14.52;;;8.07;;
41446;SDS011;27185;52.040;4.490;2024-01-10T06:22:45;15.48;;;7.63;;
41446;SDS011;27185;52.040;4.490;2024-01-10T06:25:31;11.60;;;6.03;;
41446;SDS011;27185;52.040;4.490;2024-01-10T06:28:17;12.02;;;6.70;;
41446;SDS011;27185;52.040;4.490;2024-01-10T06:31:03;15.85;;;7.30;;
41446;SDS011;27185;52.040;4.490;2024-01-10T06:33:48;14.02;;;7.18;;
41446;SDS011;27185;52.040;4.490;2024-01-10T06:36:34;11.35;;;7.40;;
41446;SDS011;27185;52.040;4.490;2024-01-10T06:39:20;13.38;;;7.13;;
41446;SDS011;27185;52.040;4.490;2024-01-10T06:42:06;13.73;;;6.90;;
41446;SDS011;27185;52.040;4.490;2024-01-10T06:44:53;12.35;;;6.78;;
41446;SDS011;27185;52.040;4.490;2024-01-10T06:47:39;16.00;;;7.00;;
41446;SDS011;27185;52.040;4.490;2024-01-10T06:50:25;12.75;;;7.22;;
41446;SDS011;27185;52.040;4.490;2024-01-10T06:53:10;14.50;;;7.78;;
41446;SDS011;27185;52.040;4.490;2024-01-10T06:55:56;13.65;;;7.18;;
41446;SDS011;27185;52.040;4.490;2024-01-10T06:58:41;14.43;;;6.47;;
41446;SDS011;27185;52.040;4.490;2024-01-10T07:01:29;15.80;;;7.45;;
41446;SDS011;27185;52.040;4.490;2024-01-10T07:04:15;16.95;;;7.00;;
41446;SDS011;27185;52.040;4.490;2024-01-10T07:07:02;13.40;;;6.80;;
41446;SDS011;27185;52.040;4.490;2024-01-10T07:09:49;10.98;;;5.82;;
41446;SDS011;27185;52.040;4.490;2024-01-10T07:12:34;13.10;;;7.30;;
41446;SDS011;27185;52.040;4.490;2024-01-10T07:15:20;12.73;;;6.78;;
41446;SDS011;27185;52.040;4.490;2024-01-10T07:18:06;11.00;;;6.20;;
41446;SDS011;27185;52.040;4.490;2024-01-10T07:20:51;11.90;;;6.32;;
41446;SDS011;27185;52.040;4.490;2024-01-10T07:23:38;10.65;;;6.30;;
41446;SDS011;27185;52.040;4.490;2024-01-10T07:26:25;10.13;;;6.00;;
41446;SDS011;27185;52.040;4.490;2024-01-10T07:29:12;12.23;;;6.07;;
41446;SDS011;27185;52.040;4.490;2024-01-10T07:31:58;11.35;;;6.72;;
41446;SDS011;27185;52.040;4.490;2024-01-10T07:34:43;9.82;;;5.63;;
41446;SDS011;27185;52.040;4.490;2024-01-10T07:37:29;12.63;;;5.97;;
41446;SDS011;27185;52.040;4.490;2024-01-10T07:40:16;11.00;;;5.95;;
41446;SDS011;27185;52.040;4.490;2024-01-10T07:43:02;12.20;;;6.60;;
41446;SDS011;27185;52.040;4.490;2024-01-10T07:45:48;13.32;;;7.25;;
41446;SDS011;27185;52.040;4.490;2024-01-10T07:48:33;12.63;;;6.50;;
41446;SDS011;27185;52.040;4.490;2024-01-10T07:51:20;12.45;;;6.20;;
41446;SDS011;27185;52.040;4.490;2024-01-10T07:54:06;9.88;;;5.40;;
41446;SDS011;27185;52.040;4.490;2024-01-10T07:56:55;11.18;;;6.55;;
41446;SDS011;27185;52.040;4.490;2024-01-10T07:59:41;12.50;;;6.28;;
41446;SDS011;27185;52.040;4.490;2024-01-10T08:02:26;12.55;;;5.72;;
41446;SDS011;27185;52.040;4.490;2024-01-10T08:05:12;12.70;;;6.47;;
41446;SDS011;27185;52.040;4.490;2024-01-10T08:07:57;12.00;;;6.30;;
41446;SDS011;27185;52.040;4.490;2024-01-10T08:10:43;12.20;;;6.13;;
41446;SDS011;27185;52.040;4.490;2024-01-10T08:13:29;12.52;;;6.15;;
41446;SDS011;27185;52.040;4.490;2024-01-10T08:16:15;12.30;;;7.20;;
41446;SDS011;27185;52.040;4.490;2024-01-10T08:19:02;12.30;;;6.03;;
41446;SDS011;27185;52.040;4.490;2024-01-10T08:21:48;12.07;;;6.43;;
41446;SDS011;27185;52.040;4.490;2024-01-10T08:24:35;14.47;;;7.87;;
41446;SDS011;27185;52.040;4.490;2024-01-10T08:27:21;11.80;;;6.00;;
41446;SDS011;27185;52.040;4.490;2024-01-10T08:30:07;11.68;;;6.55;;
41446;SDS011;27185;52.040;4.490;2024-01-10T08:32:54;10.40;;;6.28;;
41446;SDS011;27185;52.040;4.490;2024-01-10T08:35:40;10.20;;;5.95;;
41446;SDS011;27185;52.040;4.490;2024-01-10T08:38:27;10.67;;;6.17;;
41446;SDS011;27185;52.040;4.490;2024-01-10T08:41:13;11.20;;;5.50;;
41446;SDS011;27185;52.040;4.490;2024-01-10T08:43:59;12.68;;;5.90;;
41446;SDS011;27185;52.040;4.490;2024-01-10T08:46:46;13.15;;;6.68;;
41446;SDS011;27185;52.040;4.490;2024-01-10T08:49:32;11.32;;;5.95;;
41446;SDS011;27185;52.040;4.490;2024-01-10T08:52:17;9.82;;;6.18;;
41446;SDS011;27185;52.040;4.490;2024-01-10T08:55:04;11.23;;;6.53;;
41446;SDS011;27185;52.040;4.490;2024-01-10T08:57:53;14.32;;;7.05;;
41446;SDS011;27185;52.040;4.490;2024-01-10T09:00:38;10.80;;;6.43;;
41446;SDS011;27185;52.040;4.490;2024-01-10T09:03:24;16.88;;;7.28;;
41446;SDS011;27185;52.040;4.490;2024-01-10T09:06:10;13.93;;;6.10;;
41446;SDS011;27185;52.040;4.490;2024-01-10T09:08:55;11.82;;;6.15;;
41446;SDS011;27185;52.040;4.490;2024-01-10T09:11:41;16.50;;;6.65;;
41446;SDS011;27185;52.040;4.490;2024-01-10T09:14:26;10.90;;;5.15;;
41446;SDS011;27185;52.040;4.490;2024-01-10T09:17:15;12.48;;;6.25;;
41446;SDS011;27185;52.040;4.490;2024-01-10T09:20:00;12.15;;;5.43;;
41446;SDS011;27185;52.040;4.490;2024-01-10T09:22:48;11.40;;;5.95;;
41446;SDS011;27185;52.040;4.490;2024-01-10T09:25:34;13.27;;;5.13;;
41446;SDS011;27185;52.040;4.490;2024-01-10T09:28:19;11.10;;;6.18;;
41446;SDS011;27185;52.040;4.490;2024-01-10T09:31:05;9.18;;;5.13;;
41446;SDS011;27185;52.040;4.490;2024-01-10T09:33:52;10.80;;;5.40;;
41446;SDS011;27185;52.040;4.490;2024-01-10T09:36:38;10.27;;;5.65;;
41446;SDS011;27185;52.040;4.490;2024-01-10T09:39:24;8.20;;;4.30;;
41446;SDS011;27185;52.040;4.490;2024-01-10T09:42:09;11.13;;;5.43;;
41446;SDS011;27185;52.040;4.490;2024-01-10T09:44:55;11.32;;;5.35;;
41446;SDS011;27185;52.040;4.490;2024-01-10T09:47:41;10.85;;;4.68;;
41446;SDS011;27185;52.040;4.490;2024-01-10T09:50:29;10.68;;;5.53;;
41446;SDS011;27185;52.040;4.490;2024-01-10T09:53:18;8.85;;;5.03;;
41446;SDS011;27185;52.040;4.490;2024-01-10T09:56:08;10.57;;;4.57;;
41446;SDS011;27185;52.040;4.490;2024-01-10T09:58:55;9.27;;;5.57;;
41446;SDS011;27185;52.040;4.490;2024-01-10T10:01:45;10.98;;;5.20;;
41446;SDS011;27185;52.040;4.490;2024-01-10T10:04:31;12.05;;;5.28;;
41446;SDS011;27185;52.040;4.490;2024-01-10T10:07:16;9.63;;;4.50;;
41446;SDS011;27185;52.040;4.490;2024-01-10T10:10:02;8.85;;;5.05;;
41446;SDS011;27185;52.040;4.490;2024-01-10T10:12:49;11.77;;;5.13;;
41446;SDS011;27185;52.040;4.490;2024-01-10T10:15:38;8.68;;;5.38;;
41446;SDS011;27185;52.040;4.490;2024-01-10T10:18:23;9.52;;;5.30;;
41446;SDS011;27185;52.040;4.490;2024-01-10T10:21:10;12.07;;;5.95;;
41446;SDS011;27185;52.040;4.490;2024-01-10T10:23:57;8.23;;;3.83;;
41446;SDS011;27185;52.040;4.490;2024-01-10T10:26:45;11.05;;;4.60;;
41446;SDS011;27185;52.040;4.490;2024-01-10T10:29:31;7.80;;;4.55;;
41446;SDS011;27185;52.040;4.490;2024-01-10T10:32:17;9.50;;;5.10;;
41446;SDS011;27185;52.040;4.490;2024-01-10T10:35:03;9.00;;;5.13;;
41446;SDS011;27185;52.040;4.490;2024-01-10T10:37:52;11.60;;;4.90;;
41446;SDS011;27185;52.040;4.490;2024-01-10T10:40:39;11.65;;;5.68;;
41446;SDS011;27185;52.040;4.490;2024-01-10T10:43:24;9.55;;;4.10;;
41446;SDS011;27185;52.040;4.490;2024-01-10T10:46:14;10.15;;;4.60;;
41446;SDS011;27185;52.040;4.490;2024-01-10T10:48:59;10.43;;;4.68;;
41446;SDS011;27185;52.040;4.490;2024-01-10T10:51:56;11.52;;;5.60;;
41446;SDS011;27185;52.040;4.490;2024-01-10T10:54:44;10.52;;;5.53;;
41446;SDS011;27185;52.040;4.490;2024-01-10T10:57:31;9.77;;;4.43;;
41446;SDS011;27185;52.040;4.490;2024-01-10T11:00:21;12.27;;;5.18;;
41446;SDS011;27185;52.040;4.490;2024-01-10T11:03:12;10.18;;;5.35;;
41446;SDS011;27185;52.040;4.490;2024-01-10T11:05:58;11.27;;;5.10;;
41446;SDS011;27185;52.040;4.490;2024-01-10T11:24:47;9.93;;;4.28;;
41446;SDS011;27185;52.040;4.490;2024-01-10T11:27:33;9.38;;;4.95;;
41446;SDS011;27185;52.040;4.490;2024-01-10T11:30:47;13.93;;;5.53;;
41446;SDS011;27185;52.040;4.490;2024-01-10T11:33:35;14.20;;;5.97;;
41446;SDS011;27185;52.040;4.490;2024-01-10T11:36:24;11.80;;;5.13;;
41446;SDS011;27185;52.040;4.490;2024-01-10T11:39:11;8.60;;;5.22;;
41446;SDS011;27185;52.040;4.490;2024-01-10T11:41:58;9.18;;;5.70;;
41446;SDS011;27185;52.040;4.490;2024-01-10T11:44:48;11.68;;;5.70;;
41446;SDS011;27185;52.040;4.490;2024-01-10T11:47:40;9.93;;;5.15;;
41446;SDS011;27185;52.040;4.490;2024-01-10T11:50:29;12.85;;;5.13;;
41446;SDS011;27185;52.040;4.490;2024-01-10T11:56:25;10.57;;;5.38;;
41446;SDS011;27185;52.040;4.490;2024-01-10T11:59:26;10.52;;;5.38;;
41446;SDS011;27185;52.040;4.490;2024-01-10T12:02:15;10.15;;;5.22;;
41446;SDS011;27185;52.040;4.490;2024-01-10T12:05:02;11.98;;;5.43;;
41446;SDS011;27185;52.040;4.490;2024-01-10T12:07:50;14.25;;;5.25;;
41446;SDS011;27185;52.040;4.490;2024-01-10T12:10:37;12.95;;;6.00;;
41446;SDS011;27185;52.040;4.490;2024-01-10T12:13:23;14.07;;;5.78;;
41446;SDS011;27185;52.040;4.490;2024-01-10T12:16:26;19.52;;;7.50;;
41446;SDS011;27185;52.040;4.490;2024-01-10T12:19:11;18.88;;;6.53;;
41446;SDS011;27185;52.040;4.490;2024-01-10T12:21:57;16.92;;;8.38;;
41446;SDS011;27185;52.040;4.490;2024-01-10T12:24:43;25.48;;;11.02;;
41446;SDS011;27185;52.040;4.490;2024-01-10T12:27:33;19.50;;;9.63;;
41446;SDS011;27185;52.040;4.490;2024-01-10T12:30:18;12.93;;;6.10;;
41446;SDS011;27185;52.040;4.490;2024-01-10T12:33:05;14.48;;;5.75;;
41446;SDS011;27185;52.040;4.490;2024-01-10T12:36:03;9.95;;;5.70;;
41446;SDS011;27185;52.040;4.490;2024-01-10T12:38:54;8.73;;;5.22;;
41446;SDS011;27185;52.040;4.490;2024-01-10T12:41:40;11.48;;;5.32;;
41446;SDS011;27185;52.040;4.490;2024-01-10T12:44:27;11.73;;;4.43;;
41446;SDS011;27185;52.040;4.490;2024-01-10T12:47:19;10.57;;;5.15;;
41446;SDS011;27185;52.040;4.490;2024-01-10T12:50:06;11.00;;;4.53;;
41446;SDS011;27185;52.040;4.490;2024-01-10T12:52:58;10.43;;;5.20;;
41446;SDS011;27185;52.040;4.490;2024-01-10T12:55:44;13.52;;;5.40;;
41446;SDS011;27185;52.040;4.490;2024-01-10T12:58:30;9.60;;;5.28;;
41446;SDS011;27185;52.040;4.490;2024-01-10T13:01:16;10.18;;;5.18;;
41446;SDS011;27185;52.040;4.490;2024-01-10T13:04:02;10.85;;;5.68;;
41446;SDS011;27185;52.040;4.490;2024-01-10T13:06:47;12.00;;;5.65;;
41446;SDS011;27185;52.040;4.490;2024-01-10T13:09:33;12.05;;;5.95;;
41446;SDS011;27185;52.040;4.490;2024-01-10T13:12:19;12.20;;;5.28;;
41446;SDS011;27185;52.040;4.490;2024-01-10T13:15:05;13.30;;;5.47;;
41446;SDS011;27185;52.040;4.490;2024-01-10T13:17:51;9.98;;;4.93;;
41446;SDS011;27185;52.040;4.490;2024-01-10T13:20:37;13.52;;;6.45;;
41446;SDS011;27185;52.040;4.490;2024-01-10T13:26:11;11.65;;;5.60;;
41446;SDS011;27185;52.040;4.490;2024-01-10T13:28:57;14.73;;;5.80;;
41446;SDS011;27185;52.040;4.490;2024-01-10T13:31:42;10.68;;;5.78;;
41446;SDS011;27185;52.040;4.490;2024-01-10T13:34:34;11.05;;;5.95;;
41446;SDS011;27185;52.040;4.490;2024-01-10T13:37:19;10.45;;;6.10;;
41446;SDS011;27185;52.040;4.490;2024-01-10T13:40:06;13.98;;;6.60;;
41446;SDS011;27185;52.040;4.490;2024-01-10T13:42:53;10.15;;;6.03;;
41446;SDS011;27185;52.040;4.490;2024-01-10T13:45:39;9.18;;;5.47;;
41446;SDS011;27185;52.040;4.490;2024-01-10T13:48:25;11.00;;;6.55;;
41446;SDS011;27185;52.040;4.490;2024-01-10T13:51:10;9.80;;;5.45;;
41446;SDS011;27185;52.040;4.490;2024-01-10T13:53:56;13.05;;;6.38;;
41446;SDS011;27185;52.040;4.490;2024-01-10T13:56:42;13.18;;;6.40;;
41446;SDS011;27185;52.040;4.490;2024-01-10T13:59:27;16.77;;;7.82;;
41446;SDS011;27185;52.040;4.490;2024-01-10T14:02:13;12.57;;;6.88;;
41446;SDS011;27185;52.040;4.490;2024-01-10T14:04:59;9.07;;;5.63;;
41446;SDS011;27185;52.040;4.490;2024-01-10T14:07:45;13.73;;;5.95;;
41446;SDS011;27185;52.040;4.490;2024-01-10T14:10:31;10.88;;;5.72;;
41446;SDS011;27185;52.040;4.490;2024-01-10T14:13:17;11.00;;;5.68;;
41446;SDS011;27185;52.040;4.490;2024-01-10T14:16:03;11.75;;;6.43;;
41446;SDS011;27185;52.040;4.490;2024-01-10T14:18:51;11.15;;;5.72;;
41446;SDS011;27185;52.040;4.490;2024-01-10T14:21:37;14.65;;;6.18;;
41446;SDS011;27185;52.040;4.490;2024-01-10T14:24:22;11.35;;;6.53;;
41446;SDS011;27185;52.040;4.490;2024-01-10T14:27:08;12.18;;;6.10;;
41446;SDS011;27185;52.040;4.490;2024-01-10T14:29:54;11.38;;;5.80;;
41446;SDS011;27185;52.040;4.490;2024-01-10T14:32:41;9.00;;;5.85;;
41446;SDS011;27185;52.040;4.490;2024-01-10T14:35:26;10.85;;;6.95;;
41446;SDS011;27185;52.040;4.490;2024-01-10T14:38:12;13.45;;;7.35;;
41446;SDS011;27185;52.040;4.490;2024-01-10T14:40:58;13.88;;;8.13;;
41446;SDS011;27185;52.040;4.490;2024-01-10T14:43:43;17.05;;;9.15;;
41446;SDS011;27185;52.040;4.490;2024-01-10T14:46:29;19.75;;;9.73;;
41446;SDS011;27185;52.040;4.490;2024-01-10T14:49:15;15.20;;;7.15;;
41446;SDS011;27185;52.040;4.490;2024-01-10T14:52:00;11.40;;;5.43;;
41446;SDS011;27185;52.040;4.490;2024-01-10T14:54:46;9.00;;;4.85;;
41446;SDS011;27185;52.040;4.490;2024-01-10T14:57:32;14.73;;;9.00;;
41446;SDS011;27185;52.040;4.490;2024-01-10T15:00:18;12.98;;;6.28;;
41446;SDS011;27185;52.040;4.490;2024-01-10T15:03:04;12.50;;;6.82;;
41446;SDS011;27185;52.040;4.490;2024-01-10T15:05:52;11.52;;;6.20;;
41446;SDS011;27185;52.040;4.490;2024-01-10T15:08:41;10.38;;;6.13;;
41446;SDS011;27185;52.040;4.490;2024-01-10T15:11:27;11.60;;;5.88;;
41446;SDS011;27185;52.040;4.490;2024-01-10T15:14:12;15.25;;;6.20;;
41446;SDS011;27185;52.040;4.490;2024-01-10T15:16:58;10.63;;;6.03;;
41446;SDS011;27185;52.040;4.490;2024-01-10T15:19:45;13.88;;;6.00;;
41446;SDS011;27185;52.040;4.490;2024-01-10T15:22:31;9.43;;;5.30;;
41446;SDS011;27185;52.040;4.490;2024-01-10T15:25:16;11.20;;;6.88;;
41446;SDS011;27185;52.040;4.490;2024-01-10T15:28:02;13.30;;;7.20;;
41446;SDS011;27185;52.040;4.490;2024-01-10T15:30:48;11.20;;;6.22;;
41446;SDS011;27185;52.040;4.490;2024-01-10T15:33:34;11.35;;;6.45;;
41446;SDS011;27185;52.040;4.490;2024-01-10T15:36:20;9.93;;;6.15;;
41446;SDS011;27185;52.040;4.490;2024-01-10T15:39:06;10.98;;;6.43;;
41446;SDS011;27185;52.040;4.490;2024-01-10T15:41:52;12.50;;;6.57;;
41446;SDS011;27185;52.040;4.490;2024-01-10T15:44:38;14.73;;;8.45;;
41446;SDS011;27185;52.040;4.490;2024-01-10T15:47:26;13.48;;;7.13;;
41446;SDS011;27185;52.040;4.490;2024-01-10T15:50:12;14.55;;;7.00;;
41446;SDS011;27185;52.040;4.490;2024-01-10T15:52:58;10.43;;;6.20;;
41446;SDS011;27185;52.040;4.490;2024-01-10T15:55:43;12.40;;;7.10;;
41446;SDS011;27185;52.040;4.490;2024-01-10T15:58:29;13.35;;;6.50;;
41446;SDS011;27185;52.040;4.490;2024-01-10T16:01:15;11.98;;;5.95;;
41446;SDS011;27185;52.040;4.490;2024-01-10T16:04:31;10.30;;;5.53;;
41446;SDS011;27185;52.040;4.490;2024-01-10T16:07:17;13.40;;;7.82;;
41446;SDS011;27185;52.040;4.490;2024-01-10T16:10:02;28.05;;;13.57;;
41446;SDS011;27185;52.040;4.490;2024-01-10T16:12:48;16.85;;;8.98;;
41446;SDS011;27185;52.040;4.490;2024-01-10T16:15:34;15.00;;;7.28;;
41446;SDS011;27185;52.040;4.490;2024-01-10T16:18:20;11.15;;;6.38;;
41446;SDS011;27185;52.040;4.490;2024-01-10T16:21:06;13.45;;;6.22;;
41446;SDS011;27185;52.040;4.490;2024-01-10T16:23:52;13.30;;;6.65;;
41446;SDS011;27185;52.040;4.490;2024-01-10T16:26:37;10.93;;;6.22;;
41446;SDS011;27185;52.040;4.490;2024-01-10T16:29:23;11.50;;;6.03;;
41446;SDS011;27185;52.040;4.490;2024-01-10T16:32:08;10.35;;;6.32;;
41446;SDS011;27185;52.040;4.490;2024-01-10T16:34:54;13.63;;;5.82;;
41446;SDS011;27185;52.040;4.490;2024-01-10T16:37:40;13.30;;;6.80;;
41446;SDS011;27185;52.040;4.490;2024-01-10T16:40:26;10.05;;;5.78;;
41446;SDS011;27185;52.040;4.490;2024-01-10T16:43:11;12.88;;;7.38;;
41446;SDS011;27185;52.040;4.490;2024-01-10T16:45:57;9.82;;;5.95;;
41446;SDS011;27185;52.040;4.490;2024-01-10T16:48:43;14.20;;;6.63;;
41446;SDS011;27185;52.040;4.490;2024-01-10T16:51:28;14.90;;;6.65;;
41446;SDS011;27185;52.040;4.490;2024-01-10T16:54:14;11.20;;;6.20;;
41446;SDS011;27185;52.040;4.490;2024-01-10T16:57:03;17.55;;;6.90;;
41446;SDS011;27185;52.040;4.490;2024-01-10T16:59:48;9.77;;;5.88;;